Cowbridge, United Kingdom
Current Conditions -  °F | °C
As of 12:50 AM on Wednesday 22 Oct 2014 (Local Time) from EGDX Reporting Station
Few Clouds Few Clouds  
Wind Chill: 50°   Ceiling: Unl
Heat Index: 50°   Visibility: 6mi
Dew Point: 41°   Wind: 15mph
Humidity: 71%   Direction: 290°WNW
Pressure: 30.27"   Gusts: NA
Location:  51.46°N, 3.44°W
Report Text: EGDX 212350Z AUTO 29013KT 9999 FEW048/// 10/05 Q1025
Loading
Personal Weather Stations






























Interactive Weather Map
Tropical Storm Tracking
New forecast layout! Learn more

10-Day Weather Forecast

Advertisements
Track Severe Weather on mobile